sensor_id;sensor_type;location;lat;lon;timestamp;pressure;altitude;pressure_sealevel;temperature;humidity
40946;BME280;55635;50.264;11.918;2023-05-24T00:00:05;95826.16;;;12.27;66.54
40946;BME280;55635;50.264;11.918;2023-05-24T00:02:52;95841.22;;;12.41;66.95
40946;BME280;55635;50.264;11.918;2023-05-24T00:05:33;95828.25;;;12.32;67.11
40946;BME280;55635;50.264;11.918;2023-05-24T00:08:17;95830.16;;;12.17;66.68
40946;BME280;55635;50.264;11.918;2023-05-24T00:10:58;95837.16;;;12.24;67.02
40946;BME280;55635;50.264;11.918;2023-05-24T00:13:39;95837.53;;;12.21;66.55
40946;BME280;55635;50.264;11.918;2023-05-24T00:16:20;95832.16;;;12.15;66.90
40946;BME280;55635;50.264;11.918;2023-05-24T00:19:01;95836.72;;;12.21;66.24
40946;BME280;55635;50.264;11.918;2023-05-24T00:21:52;95841.56;;;12.17;66.85
40946;BME280;55635;50.264;11.918;2023-05-24T00:24:33;95837.53;;;12.21;66.43
40946;BME280;55635;50.264;11.918;2023-05-24T00:27:14;95818.03;;;12.14;66.44
40946;BME280;55635;50.264;11.918;2023-05-24T00:29:55;95843.69;;;12.22;67.47
40946;BME280;55635;50.264;11.918;2023-05-24T00:32:36;95831.59;;;11.98;67.44
40946;BME280;55635;50.264;11.918;2023-05-24T00:35:17;95833.41;;;11.97;67.15
40946;BME280;55635;50.264;11.918;2023-05-24T00:37:58;95831.00;;;12.02;66.88
40946;BME280;55635;50.264;11.918;2023-05-24T00:40:39;95839.56;;;11.98;68.06
40946;BME280;55635;50.264;11.918;2023-05-24T00:43:21;95835.78;;;12.07;67.65
40946;BME280;55635;50.264;11.918;2023-05-24T00:46:16;95836.53;;;12.22;67.17
40946;BME280;55635;50.264;11.918;2023-05-24T00:48:58;95839.69;;;12.11;67.32
40946;BME280;55635;50.264;11.918;2023-05-24T00:51:40;95833.34;;;12.12;66.81
40946;BME280;55635;50.264;11.918;2023-05-24T00:54:21;95807.03;;;11.96;67.16
40946;BME280;55635;50.264;11.918;2023-05-24T00:57:02;95842.63;;;12.16;67.05
40946;BME280;55635;50.264;11.918;2023-05-24T00:59:43;95836.25;;;12.17;66.44
40946;BME280;55635;50.264;11.918;2023-05-24T01:02:25;95839.94;;;12.16;66.92
40946;BME280;55635;50.264;11.918;2023-05-24T01:05:07;95827.59;;;12.09;67.09
40946;BME280;55635;50.264;11.918;2023-05-24T01:08:14;95849.50;;;12.11;66.50
40946;BME280;55635;50.264;11.918;2023-05-24T01:20:49;95835.38;;;11.89;66.52
40946;BME280;55635;50.264;11.918;2023-05-24T01:24:23;95837.44;;;11.93;67.15
40946;BME280;55635;50.264;11.918;2023-05-24T01:27:11;95830.16;;;11.81;66.87
40946;BME280;55635;50.264;11.918;2023-05-24T01:29:52;95823.22;;;11.80;67.07
40946;BME280;55635;50.264;11.918;2023-05-24T01:32:34;95822.84;;;11.83;67.12
40946;BME280;55635;50.264;11.918;2023-05-24T01:35:15;95818.47;;;11.61;67.07
40946;BME280;55635;50.264;11.918;2023-05-24T01:37:55;95813.63;;;11.50;67.87
40946;BME280;55635;50.264;11.918;2023-05-24T01:40:37;95817.75;;;11.52;67.67
40946;BME280;55635;50.264;11.918;2023-05-24T01:43:32;95818.00;;;11.57;67.75
40946;BME280;55635;50.264;11.918;2023-05-24T01:46:46;95836.09;;;11.68;67.25
40946;BME280;55635;50.264;11.918;2023-05-24T01:49:33;95825.00;;;11.43;68.04
40946;BME280;55635;50.264;11.918;2023-05-24T01:52:21;95829.13;;;11.46;68.00
40946;BME280;55635;50.264;11.918;2023-05-24T01:55:03;95808.97;;;11.37;67.72
40946;BME280;55635;50.264;11.918;2023-05-24T01:57:47;95821.06;;;11.39;68.35
40946;BME280;55635;50.264;11.918;2023-05-24T02:00:30;95815.75;;;11.10;67.64
40946;BME280;55635;50.264;11.918;2023-05-24T02:03:14;95816.94;;;11.22;67.42
40946;BME280;55635;50.264;11.918;2023-05-24T02:05:58;95824.38;;;11.12;67.65
40946;BME280;55635;50.264;11.918;2023-05-24T02:08:39;95825.19;;;11.13;67.08
40946;BME280;55635;50.264;11.918;2023-05-24T02:11:20;95824.47;;;11.19;67.41
40946;BME280;55635;50.264;11.918;2023-05-24T02:14:02;95824.75;;;11.09;66.83
40946;BME280;55635;50.264;11.918;2023-05-24T02:16:43;95821.78;;;11.04;67.41
40946;BME280;55635;50.264;11.918;2023-05-24T02:19:26;95823.06;;;11.23;66.70
40946;BME280;55635;50.264;11.918;2023-05-24T02:22:07;95808.25;;;10.99;67.12
40946;BME280;55635;50.264;11.918;2023-05-24T02:24:48;95829.75;;;11.04;67.52
40946;BME280;55635;50.264;11.918;2023-05-24T02:27:29;95821.78;;;11.04;67.33
40946;BME280;55635;50.264;11.918;2023-05-24T02:30:11;95824.44;;;11.04;67.27
40946;BME280;55635;50.264;11.918;2023-05-24T02:32:52;95826.09;;;11.05;67.50
40946;BME280;55635;50.264;11.918;2023-05-24T02:35:33;95823.19;;;10.85;67.63
40946;BME280;55635;50.264;11.918;2023-05-24T02:38:14;95800.38;;;10.76;68.04
40946;BME280;55635;50.264;11.918;2023-05-24T02:40:55;95814.75;;;10.97;67.85
40946;BME280;55635;50.264;11.918;2023-05-24T02:43:36;95815.13;;;11.08;67.57
40946;BME280;55635;50.264;11.918;2023-05-24T02:46:17;95817.88;;;11.15;67.66
40946;BME280;55635;50.264;11.918;2023-05-24T02:48:58;95811.47;;;11.09;67.51
40946;BME280;55635;50.264;11.918;2023-05-24T02:51:39;95817.97;;;11.07;67.88
40946;BME280;55635;50.264;11.918;2023-05-24T02:54:20;95814.41;;;11.00;67.81
40946;BME280;55635;50.264;11.918;2023-05-24T02:57:01;95819.06;;;11.12;67.24
40946;BME280;55635;50.264;11.918;2023-05-24T02:59:42;95809.63;;;10.95;65.41
40946;BME280;55635;50.264;11.918;2023-05-24T03:02:23;95798.13;;;10.88;64.91
40946;BME280;55635;50.264;11.918;2023-05-24T03:05:09;95805.59;;;10.84;64.20
40946;BME280;55635;50.264;11.918;2023-05-24T03:07:50;95802.50;;;10.81;63.81
40946;BME280;55635;50.264;11.918;2023-05-24T03:10:31;95805.88;;;10.75;64.38
40946;BME280;55635;50.264;11.918;2023-05-24T03:13:12;95810.91;;;10.70;63.88
40946;BME280;55635;50.264;11.918;2023-05-24T03:15:53;95811.63;;;10.64;64.20
40946;BME280;55635;50.264;11.918;2023-05-24T03:18:34;95801.75;;;10.58;64.35
40946;BME280;55635;50.264;11.918;2023-05-24T03:21:16;95818.28;;;10.60;64.89
40946;BME280;55635;50.264;11.918;2023-05-24T03:24:00;95811.50;;;10.43;64.95
40946;BME280;55635;50.264;11.918;2023-05-24T03:26:41;95821.03;;;10.52;64.73
40946;BME280;55635;50.264;11.918;2023-05-24T03:29:23;95816.09;;;10.49;64.96
40946;BME280;55635;50.264;11.918;2023-05-24T03:32:05;95811.13;;;10.46;66.14
40946;BME280;55635;50.264;11.918;2023-05-24T03:34:47;95829.50;;;10.47;65.64
40946;BME280;55635;50.264;11.918;2023-05-24T03:37:29;95823.69;;;10.52;65.06
40946;BME280;55635;50.264;11.918;2023-05-24T03:40:10;95815.97;;;10.19;65.63
40946;BME280;55635;50.264;11.918;2023-05-24T03:43:10;95819.63;;;10.41;66.01
40946;BME280;55635;50.264;11.918;2023-05-24T03:46:05;95827.44;;;10.34;65.66
40946;BME280;55635;50.264;11.918;2023-05-24T03:48:47;95790.72;;;10.31;66.19
40946;BME280;55635;50.264;11.918;2023-05-24T03:51:28;95832.19;;;10.62;65.04
40946;BME280;55635;50.264;11.918;2023-05-24T03:54:09;95826.78;;;10.55;65.28
40946;BME280;55635;50.264;11.918;2023-05-24T03:56:51;95826.84;;;10.47;65.32
40946;BME280;55635;50.264;11.918;2023-05-24T03:59:33;95828.78;;;10.53;65.39
40946;BME280;55635;50.264;11.918;2023-05-24T04:02:14;95846.00;;;10.57;65.63
40946;BME280;55635;50.264;11.918;2023-05-24T04:04:55;95844.16;;;10.58;64.73
40946;BME280;55635;50.264;11.918;2023-05-24T04:07:40;95833.31;;;10.30;65.16
40946;BME280;55635;50.264;11.918;2023-05-24T04:10:26;95847.22;;;10.47;65.60
40946;BME280;55635;50.264;11.918;2023-05-24T04:13:08;95853.34;;;10.47;65.90
40946;BME280;55635;50.264;11.918;2023-05-24T04:15:50;95839.59;;;10.52;65.40
40946;BME280;55635;50.264;11.918;2023-05-24T04:18:32;95850.75;;;10.62;65.18
40946;BME280;55635;50.264;11.918;2023-05-24T04:21:13;95851.22;;;10.65;64.94
40946;BME280;55635;50.264;11.918;2023-05-24T04:23:54;95856.06;;;10.76;64.58
40946;BME280;55635;50.264;11.918;2023-05-24T04:26:39;95854.09;;;10.56;64.45
40946;BME280;55635;50.264;11.918;2023-05-24T04:29:20;95842.47;;;10.42;65.29
40946;BME280;55635;50.264;11.918;2023-05-24T04:32:01;95843.56;;;10.33;64.91
40946;BME280;55635;50.264;11.918;2023-05-24T04:34:43;95863.13;;;10.47;64.85
40946;BME280;55635;50.264;11.918;2023-05-24T04:37:25;95873.69;;;10.55;65.03
40946;BME280;55635;50.264;11.918;2023-05-24T04:40:08;95867.69;;;10.38;64.82
40946;BME280;55635;50.264;11.918;2023-05-24T04:42:52;95867.81;;;10.45;64.44
40946;BME280;55635;50.264;11.918;2023-05-24T04:45:33;95873.78;;;10.61;64.27
40946;BME280;55635;50.264;11.918;2023-05-24T04:48:14;95874.28;;;10.42;64.13
40946;BME280;55635;50.264;11.918;2023-05-24T04:50:57;95868.88;;;10.35;63.91
40946;BME280;55635;50.264;11.918;2023-05-24T04:53:38;95865.16;;;10.22;64.62
40946;BME280;55635;50.264;11.918;2023-05-24T04:56:19;95854.66;;;10.06;64.92
40946;BME280;55635;50.264;11.918;2023-05-24T04:59:00;95883.47;;;10.31;63.99
40946;BME280;55635;50.264;11.918;2023-05-24T05:01:41;95892.38;;;10.38;64.28
40946;BME280;55635;50.264;11.918;2023-05-24T05:04:22;95879.63;;;10.11;63.83
40946;BME280;55635;50.264;11.918;2023-05-24T05:07:03;95865.63;;;9.95;63.57
40946;BME280;55635;50.264;11.918;2023-05-24T05:09:44;95881.00;;;9.99;64.33
40946;BME280;55635;50.264;11.918;2023-05-24T05:12:25;95893.69;;;10.12;64.11
40946;BME280;55635;50.264;11.918;2023-05-24T05:15:07;95883.66;;;9.68;64.62
40946;BME280;55635;50.264;11.918;2023-05-24T05:17:49;95907.25;;;10.17;63.77
40946;BME280;55635;50.264;11.918;2023-05-24T05:20:30;95895.00;;;10.16;63.56
40946;BME280;55635;50.264;11.918;2023-05-24T05:23:10;95884.59;;;10.06;63.19
40946;BME280;55635;50.264;11.918;2023-05-24T05:25:51;95904.75;;;10.15;63.40
40946;BME280;55635;50.264;11.918;2023-05-24T05:28:32;95902.09;;;10.23;63.38
40946;BME280;55635;50.264;11.918;2023-05-24T05:31:13;95906.91;;;10.20;63.36
40946;BME280;55635;50.264;11.918;2023-05-24T05:33:54;95913.16;;;10.27;63.11
40946;BME280;55635;50.264;11.918;2023-05-24T05:36:36;95899.84;;;10.35;63.17
40946;BME280;55635;50.264;11.918;2023-05-24T05:39:20;95888.41;;;10.34;63.72
40946;BME280;55635;50.264;11.918;2023-05-24T05:42:01;95907.38;;;10.46;63.48
40946;BME280;55635;50.264;11.918;2023-05-24T05:44:42;95905.94;;;10.58;63.77
40946;BME280;55635;50.264;11.918;2023-05-24T05:47:23;95896.16;;;10.59;62.79
40946;BME280;55635;50.264;11.918;2023-05-24T05:50:04;95897.91;;;10.52;62.71
40946;BME280;55635;50.264;11.918;2023-05-24T05:52:45;95891.13;;;10.26;63.18
40946;BME280;55635;50.264;11.918;2023-05-24T05:55:26;95886.50;;;10.66;62.23
40946;BME280;55635;50.264;11.918;2023-05-24T05:58:07;95894.94;;;10.69;62.57
40946;BME280;55635;50.264;11.918;2023-05-24T06:00:48;95912.19;;;10.88;61.13
40946;BME280;55635;50.264;11.918;2023-05-24T06:03:29;95899.88;;;10.72;61.94
40946;BME280;55635;50.264;11.918;2023-05-24T06:06:11;95920.78;;;10.90;62.41
40946;BME280;55635;50.264;11.918;2023-05-24T06:08:52;95908.38;;;10.82;61.55
40946;BME280;55635;50.264;11.918;2023-05-24T06:11:33;95917.00;;;10.84;61.02
40946;BME280;55635;50.264;11.918;2023-05-24T06:14:14;95915.81;;;10.87;61.13
40946;BME280;55635;50.264;11.918;2023-05-24T06:16:59;95924.03;;;11.15;61.10
40946;BME280;55635;50.264;11.918;2023-05-24T06:19:40;95933.28;;;11.33;60.85
40946;BME280;55635;50.264;11.918;2023-05-24T06:22:21;95929.34;;;11.44;60.87
40946;BME280;55635;50.264;11.918;2023-05-24T06:25:04;95920.97;;;11.70;58.71
40946;BME280;55635;50.264;11.918;2023-05-24T06:27:45;95936.59;;;11.50;58.36
40946;BME280;55635;50.264;11.918;2023-05-24T06:30:26;95930.22;;;11.74;59.31
40946;BME280;55635;50.264;11.918;2023-05-24T06:33:07;95932.03;;;11.88;58.53
40946;BME280;55635;50.264;11.918;2023-05-24T06:35:48;95938.34;;;11.87;58.00
40946;BME280;55635;50.264;11.918;2023-05-24T06:38:29;95916.72;;;11.75;58.09
40946;BME280;55635;50.264;11.918;2023-05-24T06:41:12;95936.78;;;11.78;58.23
40946;BME280;55635;50.264;11.918;2023-05-24T06:43:53;95949.91;;;11.79;57.41
40946;BME280;55635;50.264;11.918;2023-05-24T06:46:34;95943.53;;;11.66;57.86
40946;BME280;55635;50.264;11.918;2023-05-24T06:49:15;95937.31;;;11.29;58.57
40946;BME280;55635;50.264;11.918;2023-05-24T06:51:56;95951.41;;;11.44;58.30
40946;BME280;55635;50.264;11.918;2023-05-24T06:54:37;95920.81;;;11.19;57.54
40946;BME280;55635;50.264;11.918;2023-05-24T06:57:19;95955.91;;;11.44;58.64
40946;BME280;55635;50.264;11.918;2023-05-24T07:00:01;95956.16;;;11.34;58.01
40946;BME280;55635;50.264;11.918;2023-05-24T07:02:42;95968.75;;;11.55;58.15
40946;BME280;55635;50.264;11.918;2023-05-24T07:05:23;95976.84;;;11.76;57.21
40946;BME280;55635;50.264;11.918;2023-05-24T07:08:04;95973.09;;;11.71;57.92
40946;BME280;55635;50.264;11.918;2023-05-24T07:10:45;95969.59;;;11.85;57.03
40946;BME280;55635;50.264;11.918;2023-05-24T07:13:26;95951.16;;;11.83;56.79
40946;BME280;55635;50.264;11.918;2023-05-24T07:16:07;95978.19;;;12.16;56.48
40946;BME280;55635;50.264;11.918;2023-05-24T07:18:48;95958.13;;;11.99;56.56
40946;BME280;55635;50.264;11.918;2023-05-24T07:21:29;95977.75;;;11.98;56.89
40946;BME280;55635;50.264;11.918;2023-05-24T07:24:10;95982.50;;;12.38;56.33
40946;BME280;55635;50.264;11.918;2023-05-24T07:26:51;95968.28;;;12.46;55.93
40946;BME280;55635;50.264;11.918;2023-05-24T07:29:33;95980.94;;;12.80;55.04
40946;BME280;55635;50.264;11.918;2023-05-24T07:32:14;95967.78;;;12.78;53.88
40946;BME280;55635;50.264;11.918;2023-05-24T07:34:55;95968.63;;;12.79;53.65
40946;BME280;55635;50.264;11.918;2023-05-24T07:37:36;95964.44;;;12.91;54.42
40946;BME280;55635;50.264;11.918;2023-05-24T07:40:17;95978.25;;;13.01;53.69
40946;BME280;55635;50.264;11.918;2023-05-24T07:42:57;95976.22;;;13.03;53.85
40946;BME280;55635;50.264;11.918;2023-05-24T07:45:39;95976.88;;;13.26;53.74
40946;BME280;55635;50.264;11.918;2023-05-24T07:48:20;95977.66;;;13.20;53.71
40946;BME280;55635;50.264;11.918;2023-05-24T07:51:01;95979.88;;;13.44;52.12
40946;BME280;55635;50.264;11.918;2023-05-24T07:53:42;95963.50;;;13.20;52.01
40946;BME280;55635;50.264;11.918;2023-05-24T07:56:23;95977.81;;;13.19;52.28
40946;BME280;55635;50.264;11.918;2023-05-24T07:59:04;95972.56;;;13.04;52.83
40946;BME280;55635;50.264;11.918;2023-05-24T08:01:45;95954.31;;;13.22;52.01
40946;BME280;55635;50.264;11.918;2023-05-24T08:04:27;95970.28;;;13.50;51.33
40946;BME280;55635;50.264;11.918;2023-05-24T08:07:09;95980.53;;;13.81;50.36
40946;BME280;55635;50.264;11.918;2023-05-24T08:09:49;95974.72;;;14.05;49.31
40946;BME280;55635;50.264;11.918;2023-05-24T08:12:31;95973.13;;;14.17;49.75
40946;BME280;55635;50.264;11.918;2023-05-24T08:15:12;95965.56;;;14.21;48.94
40946;BME280;55635;50.264;11.918;2023-05-24T08:17:53;95961.78;;;14.02;49.28
40946;BME280;55635;50.264;11.918;2023-05-24T08:20:34;95971.06;;;14.19;49.33
40946;BME280;55635;50.264;11.918;2023-05-24T08:23:16;95965.75;;;14.19;50.70
40946;BME280;55635;50.264;11.918;2023-05-24T08:25:57;95959.91;;;14.43;49.72
40946;BME280;55635;50.264;11.918;2023-05-24T08:28:38;95969.84;;;14.69;49.30
40946;BME280;55635;50.264;11.918;2023-05-24T08:31:19;95970.69;;;14.69;47.94
40946;BME280;55635;50.264;11.918;2023-05-24T08:34:01;95978.56;;;15.04;48.81
40946;BME280;55635;50.264;11.918;2023-05-24T08:36:43;95972.38;;;15.30;47.12
40946;BME280;55635;50.264;11.918;2023-05-24T08:39:24;95976.72;;;15.44;46.42
40946;BME280;55635;50.264;11.918;2023-05-24T08:42:06;95978.38;;;15.32;46.91
40946;BME280;55635;50.264;11.918;2023-05-24T08:44:52;95980.81;;;15.46;46.32
40946;BME280;55635;50.264;11.918;2023-05-24T08:47:38;95986.34;;;15.91;45.88
40946;BME280;55635;50.264;11.918;2023-05-24T08:50:19;95978.72;;;16.58;46.37
40946;BME280;55635;50.264;11.918;2023-05-24T08:53:01;95992.53;;;16.62;44.74
40946;BME280;55635;50.264;11.918;2023-05-24T08:55:42;95983.72;;;17.24;41.71
40946;BME280;55635;50.264;11.918;2023-05-24T08:58:24;95990.19;;;17.66;42.40
40946;BME280;55635;50.264;11.918;2023-05-24T09:01:05;95984.81;;;17.90;42.17
40946;BME280;55635;50.264;11.918;2023-05-24T09:03:47;95986.50;;;17.67;41.79
40946;BME280;55635;50.264;11.918;2023-05-24T09:06:33;95990.31;;;17.46;41.28
40946;BME280;55635;50.264;11.918;2023-05-24T09:09:18;95982.66;;;17.56;40.91
40946;BME280;55635;50.264;11.918;2023-05-24T09:12:04;95975.88;;;18.15;42.08
40946;BME280;55635;50.264;11.918;2023-05-24T09:14:46;95974.53;;;18.06;40.10
40946;BME280;55635;50.264;11.918;2023-05-24T09:17:29;95980.91;;;18.95;40.48
40946;BME280;55635;50.264;11.918;2023-05-24T09:20:12;95991.44;;;19.38;40.27
40946;BME280;55635;50.264;11.918;2023-05-24T09:22:52;95980.63;;;19.91;38.13
40946;BME280;55635;50.264;11.918;2023-05-24T09:25:33;95975.00;;;20.04;38.57
40946;BME280;55635;50.264;11.918;2023-05-24T09:28:17;95970.44;;;20.05;38.75
40946;BME280;55635;50.264;11.918;2023-05-24T09:31:00;95969.38;;;19.48;37.61
40946;BME280;55635;50.264;11.918;2023-05-24T09:33:42;95972.31;;;20.28;37.46
40946;BME280;55635;50.264;11.918;2023-05-24T09:36:23;95963.13;;;20.52;37.30
40946;BME280;55635;50.264;11.918;2023-05-24T09:39:09;95968.38;;;21.27;35.95
40946;BME280;55635;50.264;11.918;2023-05-24T09:41:52;95965.56;;;20.93;36.92
40946;BME280;55635;50.264;11.918;2023-05-24T09:44:36;95977.63;;;21.31;36.29
40946;BME280;55635;50.264;11.918;2023-05-24T09:47:17;95980.97;;;20.81;34.65
40946;BME280;55635;50.264;11.918;2023-05-24T09:50:03;95967.31;;;21.28;36.45
40946;BME280;55635;50.264;11.918;2023-05-24T09:52:44;95961.63;;;20.84;36.44
40946;BME280;55635;50.264;11.918;2023-05-24T09:55:26;95970.28;;;21.59;35.28
40946;BME280;55635;50.264;11.918;2023-05-24T09:58:08;95969.22;;;21.94;32.84
40946;BME280;55635;50.264;11.918;2023-05-24T10:00:49;95969.28;;;21.65;32.84
40946;BME280;55635;50.264;11.918;2023-05-24T10:03:30;95959.97;;;20.83;33.66
40946;BME280;55635;50.264;11.918;2023-05-24T10:06:11;95958.06;;;20.67;33.53
40946;BME280;55635;50.264;11.918;2023-05-24T10:08:55;95964.66;;;21.61;36.01
40946;BME280;55635;50.264;11.918;2023-05-24T10:11:36;95974.53;;;21.10;35.38
40946;BME280;55635;50.264;11.918;2023-05-24T10:14:17;95976.97;;;20.09;37.61
40946;BME280;55635;50.264;11.918;2023-05-24T10:16:59;95974.97;;;20.51;36.24
40946;BME280;55635;50.264;11.918;2023-05-24T10:19:40;95972.84;;;20.53;35.26
40946;BME280;55635;50.264;11.918;2023-05-24T10:22:23;95957.69;;;20.75;34.45
40946;BME280;55635;50.264;11.918;2023-05-24T10:25:06;95961.50;;;20.91;37.74
40946;BME280;55635;50.264;11.918;2023-05-24T10:28:02;95974.84;;;21.59;35.16
40946;BME280;55635;50.264;11.918;2023-05-24T10:33:58;95959.16;;;20.83;33.13
40946;BME280;55635;50.264;11.918;2023-05-24T10:36:40;95962.81;;;21.33;35.08
40946;BME280;55635;50.264;11.918;2023-05-24T10:39:24;95959.69;;;20.96;34.97
40946;BME280;55635;50.264;11.918;2023-05-24T10:42:05;95957.34;;;21.45;33.88
40946;BME280;55635;50.264;11.918;2023-05-24T10:44:46;95954.84;;;21.10;35.58
40946;BME280;55635;50.264;11.918;2023-05-24T10:47:27;95954.09;;;21.76;34.50
40946;BME280;55635;50.264;11.918;2023-05-24T10:50:20;95970.22;;;21.71;33.24
40946;BME280;55635;50.264;11.918;2023-05-24T10:53:17;95956.63;;;21.83;33.39
40946;BME280;55635;50.264;11.918;2023-05-24T10:56:06;95966.13;;;21.52;34.34
40946;BME280;55635;50.264;11.918;2023-05-24T10:58:58;95954.25;;;22.03;34.24
40946;BME280;55635;50.264;11.918;2023-05-24T11:01:41;95946.53;;;21.78;35.42
40946;BME280;55635;50.264;11.918;2023-05-24T11:04:23;95964.13;;;21.81;34.22
40946;BME280;55635;50.264;11.918;2023-05-24T11:07:06;95952.88;;;21.67;33.56
40946;BME280;55635;50.264;11.918;2023-05-24T11:09:49;95950.00;;;21.74;34.40
40946;BME280;55635;50.264;11.918;2023-05-24T11:12:36;95947.19;;;21.19;32.94
40946;BME280;55635;50.264;11.918;2023-05-24T11:15:23;95946.91;;;21.03;32.81
40946;BME280;55635;50.264;11.918;2023-05-24T11:20:54;95950.50;;;21.37;32.62
40946;BME280;55635;50.264;11.918;2023-05-24T11:23:37;95954.22;;;21.20;33.62
40946;BME280;55635;50.264;11.918;2023-05-24T11:26:18;95946.63;;;21.05;33.17
40946;BME280;55635;50.264;11.918;2023-05-24T11:29:00;95951.97;;;21.61;34.16
40946;BME280;55635;50.264;11.918;2023-05-24T11:31:54;95948.84;;;21.53;34.32
40946;BME280;55635;50.264;11.918;2023-05-24T11:34:37;95941.72;;;21.47;33.84
40946;BME280;55635;50.264;11.918;2023-05-24T11:37:19;95950.78;;;21.41;34.86
40946;BME280;55635;50.264;11.918;2023-05-24T11:40:01;95943.59;;;21.30;35.20
40946;BME280;55635;50.264;11.918;2023-05-24T11:42:45;95947.81;;;20.41;35.83
40946;BME280;55635;50.264;11.918;2023-05-24T11:45:29;95913.19;;;20.89;35.87
40946;BME280;55635;50.264;11.918;2023-05-24T11:48:11;95934.34;;;21.09;35.76
40946;BME280;55635;50.264;11.918;2023-05-24T11:50:52;95951.50;;;21.20;35.06
40946;BME280;55635;50.264;11.918;2023-05-24T11:53:33;95944.16;;;21.32;35.12
40946;BME280;55635;50.264;11.918;2023-05-24T11:56:14;95950.94;;;21.17;35.09
40946;BME280;55635;50.264;11.918;2023-05-24T11:59:25;95951.78;;;21.35;35.43
40946;BME280;55635;50.264;11.918;2023-05-24T12:02:06;95958.44;;;21.77;35.05
40946;BME280;55635;50.264;11.918;2023-05-24T12:04:48;95954.09;;;21.93;33.75
40946;BME280;55635;50.264;11.918;2023-05-24T12:07:30;95955.06;;;22.03;34.40
40946;BME280;55635;50.264;11.918;2023-05-24T12:10:12;95947.44;;;21.50;33.44
40946;BME280;55635;50.264;11.918;2023-05-24T12:12:53;95957.53;;;21.88;33.50
40946;BME280;55635;50.264;11.918;2023-05-24T12:15:34;95963.16;;;21.70;34.93
40946;BME280;55635;50.264;11.918;2023-05-24T12:18:19;95953.53;;;21.91;35.20
40946;BME280;55635;50.264;11.918;2023-05-24T12:21:00;95957.88;;;21.92;34.44
40946;BME280;55635;50.264;11.918;2023-05-24T12:23:47;95956.63;;;21.83;34.11
40946;BME280;55635;50.264;11.918;2023-05-24T12:26:28;95963.09;;;21.98;34.02
40946;BME280;55635;50.264;11.918;2023-05-24T12:29:10;95951.19;;;22.16;31.03
40946;BME280;55635;50.264;11.918;2023-05-24T12:31:52;95951.38;;;21.43;33.36
40946;BME280;55635;50.264;11.918;2023-05-24T12:34:32;95950.22;;;21.72;32.91
40946;BME280;55635;50.264;11.918;2023-05-24T12:39:54;95955.78;;;21.82;34.23
40946;BME280;55635;50.264;11.918;2023-05-24T12:42:36;95939.94;;;21.86;33.10
40946;BME280;55635;50.264;11.918;2023-05-24T12:45:17;95940.94;;;22.18;33.06
40946;BME280;55635;50.264;11.918;2023-05-24T12:48:02;95940.09;;;21.79;33.59
40946;BME280;55635;50.264;11.918;2023-05-24T12:50:44;95944.53;;;22.23;34.23
40946;BME280;55635;50.264;11.918;2023-05-24T12:53:25;95945.22;;;22.57;33.38
40946;BME280;55635;50.264;11.918;2023-05-24T12:56:06;95955.13;;;22.47;32.87
40946;BME280;55635;50.264;11.918;2023-05-24T12:58:48;95940.28;;;23.19;32.31
40946;BME280;55635;50.264;11.918;2023-05-24T13:01:29;95949.09;;;23.37;31.48
40946;BME280;55635;50.264;11.918;2023-05-24T13:04:10;95940.88;;;23.53;31.49
40946;BME280;55635;50.264;11.918;2023-05-24T13:06:52;95955.25;;;23.54;31.32
40946;BME280;55635;50.264;11.918;2023-05-24T13:09:33;95939.31;;;23.94;31.47
40946;BME280;55635;50.264;11.918;2023-05-24T13:12:14;95948.00;;;24.01;30.82
40946;BME280;55635;50.264;11.918;2023-05-24T13:14:55;95945.88;;;24.03;31.25
40946;BME280;55635;50.264;11.918;2023-05-24T13:17:36;95919.31;;;23.63;30.92
40946;BME280;55635;50.264;11.918;2023-05-24T13:20:18;95942.47;;;23.22;33.04
40946;BME280;55635;50.264;11.918;2023-05-24T13:23:01;95938.47;;;23.03;32.38
40946;BME280;55635;50.264;11.918;2023-05-24T13:25:42;95944.16;;;22.37;31.51
40946;BME280;55635;50.264;11.918;2023-05-24T13:28:23;95930.53;;;22.92;32.27
40946;BME280;55635;50.264;11.918;2023-05-24T13:31:04;95946.63;;;23.30;31.33
40946;BME280;55635;50.264;11.918;2023-05-24T13:33:46;95943.50;;;23.16;31.34
40946;BME280;55635;50.264;11.918;2023-05-24T13:36:26;95941.09;;;22.50;32.75
40946;BME280;55635;50.264;11.918;2023-05-24T13:39:07;95945.41;;;22.07;31.96
40946;BME280;55635;50.264;11.918;2023-05-24T13:41:52;95933.44;;;21.87;33.96
40946;BME280;55635;50.264;11.918;2023-05-24T13:44:34;95940.84;;;21.58;34.27
40946;BME280;55635;50.264;11.918;2023-05-24T13:47:15;95927.91;;;21.27;33.13
40946;BME280;55635;50.264;11.918;2023-05-24T13:49:59;95925.22;;;20.98;34.25
40946;BME280;55635;50.264;11.918;2023-05-24T13:52:40;95925.06;;;21.05;33.59
40946;BME280;55635;50.264;11.918;2023-05-24T13:55:21;95920.38;;;21.29;33.58
40946;BME280;55635;50.264;11.918;2023-05-24T13:58:02;95924.22;;;21.33;33.74
40946;BME280;55635;50.264;11.918;2023-05-24T14:00:44;95927.75;;;21.05;32.69
40946;BME280;55635;50.264;11.918;2023-05-24T14:03:26;95933.66;;;20.34;35.25
40946;BME280;55635;50.264;11.918;2023-05-24T14:06:08;95924.66;;;20.28;35.19
40946;BME280;55635;50.264;11.918;2023-05-24T14:08:49;95933.44;;;20.12;36.43
40946;BME280;55635;50.264;11.918;2023-05-24T14:11:30;95927.03;;;19.55;36.49
40946;BME280;55635;50.264;11.918;2023-05-24T14:14:11;95934.91;;;19.57;37.33
40946;BME280;55635;50.264;11.918;2023-05-24T14:16:52;95937.53;;;19.45;37.49
40946;BME280;55635;50.264;11.918;2023-05-24T14:19:34;95932.66;;;19.77;37.28
40946;BME280;55635;50.264;11.918;2023-05-24T14:22:15;95929.25;;;19.46;37.55
40946;BME280;55635;50.264;11.918;2023-05-24T14:24:56;95935.31;;;19.42;36.96
40946;BME280;55635;50.264;11.918;2023-05-24T14:27:37;95934.59;;;19.35;37.31